Time;durP1;ratioP1;P1;durP2;ratioP2;P2;SDS_P1;SDS_P2;PMS_P1;PMS_P2;Temp;Humidity;BMP_temperature;BMP_pressure;BME280_temperature;BME280_humidity;BME280_pressure;Samples;Min_cycle;Max_cycle;Signal;HPM_P1;HPM_P2
2021/05/01 00:01:13;;;;;;;6.97;4.87;;;7.70;99.90;;;;;;5029198;28;20180;-66
2021/05/01 00:03:39;;;;;;;3.50;3.23;;;7.70;99.90;;;;;;5029378;28;20191;-67
2021/05/01 00:06:04;;;;;;;4.80;4.40;;;7.60;99.90;;;;;;5016830;28;20230;-66
2021/05/01 00:08:30;;;;;;;4.20;3.90;;;7.60;99.90;;;;;;5022311;28;20197;-65
2021/05/01 00:11:00;;;;;;;6.97;4.03;;;7.60;99.90;;;;;;5036631;28;20638;-67
2021/05/01 00:13:26;;;;;;;7.18;4.90;;;7.60;99.90;;;;;;5031893;28;20514;-66
2021/05/01 00:15:51;;;;;;;5.87;4.60;;;7.60;99.90;;;;;;5016522;28;20178;-66
2021/05/01 00:18:17;;;;;;;7.03;4.37;;;7.60;99.90;;;;;;5019571;28;20534;-66
2021/05/01 00:20:43;;;;;;;6.50;3.83;;;7.60;99.90;;;;;;5036396;28;20195;-66
2021/05/01 00:23:09;;;;;;;3.33;2.50;;;7.60;99.90;;;;;;5035389;28;20520;-66
2021/05/01 00:25:35;;;;;;;4.23;3.37;;;7.60;99.90;;;;;;5036347;28;20173;-67
2021/05/01 00:28:00;;;;;;;7.50;6.40;;;7.60;99.90;;;;;;5035462;28;20421;-67
2021/05/01 00:30:26;;;;;;;6.33;4.07;;;7.60;99.90;;;;;;5035879;28;20417;-65
2021/05/01 00:32:52;;;;;;;3.77;3.47;;;7.60;99.90;;;;;;5036751;28;20166;-65
2021/05/01 00:35:17;;;;;;;5.13;4.00;;;7.60;99.90;;;;;;5017992;28;20179;-66
2021/05/01 00:37:43;;;;;;;5.93;5.27;;;7.50;99.90;;;;;;5020454;28;20174;-65
2021/05/01 00:40:10;;;;;;;4.37;3.97;;;7.50;99.90;;;;;;5019692;28;20241;-65
2021/05/01 00:42:36;;;;;;;4.40;4.00;;;7.50;99.90;;;;;;5016380;28;20199;-66
2021/05/01 00:45:03;;;;;;;6.40;5.93;;;7.50;99.90;;;;;;5030064;28;20178;-66
2021/05/01 00:47:29;;;;;;;5.65;4.28;;;7.50;99.90;;;;;;5035571;28;20246;-66
2021/05/01 00:49:55;;;;;;;4.53;3.50;;;7.50;99.90;;;;;;5035025;28;20237;-65
2021/05/01 00:52:20;;;;;;;11.27;4.90;;;7.50;99.90;;;;;;5023167;28;20190;-65
2021/05/01 00:54:46;;;;;;;5.93;5.00;;;7.50;99.90;;;;;;5016103;28;20182;-66
2021/05/01 00:57:12;;;;;;;9.50;4.37;;;7.50;99.90;;;;;;5016674;28;20223;-67
2021/05/01 00:59:38;;;;;;;6.78;6.13;;;7.40;99.90;;;;;;5017609;28;20249;-66
2021/05/01 01:02:04;;;;;;;6.13;4.80;;;7.50;99.90;;;;;;5035220;28;20689;-66
2021/05/01 01:04:31;;;;;;;5.65;4.85;;;7.40;99.90;;;;;;5035619;28;20631;-66
2021/05/01 01:06:56;;;;;;;11.63;7.25;;;7.40;99.90;;;;;;5026415;28;20224;-64
2021/05/01 01:09:22;;;;;;;9.53;3.53;;;7.40;99.90;;;;;;5015855;28;20196;-65
2021/05/01 01:11:48;;;;;;;7.20;4.10;;;7.40;99.90;;;;;;5022336;28;20699;-65
2021/05/01 01:14:14;;;;;;;5.67;4.53;;;7.40;99.90;;;;;;5034474;28;20179;-66
2021/05/01 01:16:44;;;;;;;7.65;6.97;;;7.40;99.90;;;;;;5029810;28;20411;-65
2021/05/01 01:19:10;;;;;;;4.68;4.38;;;7.40;99.90;;;;;;5015573;28;20531;-66
2021/05/01 01:22:02;;;;;;;6.30;3.30;;;7.40;99.90;;;;;;5019203;28;20178;-66
2021/05/01 01:24:30;;;;;;;5.47;4.53;;;7.40;99.90;;;;;;5034489;28;20190;-65
2021/05/01 01:26:57;;;;;;;5.60;3.53;;;7.40;99.90;;;;;;5032951;28;20174;-65
2021/05/01 01:29:23;;;;;;;11.70;5.20;;;7.40;99.90;;;;;;5034990;28;20683;-65
2021/05/01 01:31:49;;;;;;;3.95;3.65;;;7.40;99.90;;;;;;5030076;28;20266;-65
2021/05/01 01:34:15;;;;;;;12.33;5.40;;;7.50;99.90;;;;;;5018159;28;20595;-65
2021/05/01 01:36:40;;;;;;;3.63;3.33;;;7.60;99.90;;;;;;5033209;28;20183;-66
2021/05/01 01:39:06;;;;;;;7.70;6.00;;;7.60;99.90;;;;;;5034709;28;20681;-66
2021/05/01 01:41:32;;;;;;;8.27;5.40;;;7.50;99.90;;;;;;5034678;28;20173;-66
2021/05/01 01:43:58;;;;;;;6.37;4.37;;;7.50;99.90;;;;;;5034780;28;20429;-65
2021/05/01 01:46:24;;;;;;;12.48;4.43;;;7.50;99.90;;;;;;5033727;28;20402;-66
2021/05/01 01:48:49;;;;;;;2.73;2.53;;;7.50;99.90;;;;;;5016472;28;20580;-67
2021/05/01 01:51:15;;;;;;;4.73;4.33;;;7.50;99.90;;;;;;5034761;28;20983;-66
2021/05/01 01:53:41;;;;;;;5.77;5.27;;;7.50;99.90;;;;;;5015989;28;20232;-66
2021/05/01 01:56:07;;;;;;;8.90;6.20;;;7.50;99.90;;;;;;5014461;28;20167;-65
2021/05/01 01:58:33;;;;;;;4.65;4.28;;;7.50;99.90;;;;;;5032222;28;20611;-66
2021/05/01 02:00:59;;;;;;;4.23;3.57;;;7.60;99.90;;;;;;5034579;28;20252;-67
2021/05/01 02:03:25;;;;;;;7.60;3.25;;;7.60;99.90;;;;;;5015107;28;20222;-66
2021/05/01 02:05:51;;;;;;;6.13;5.53;;;7.60;99.90;;;;;;5014471;28;20526;-66
2021/05/01 02:08:16;;;;;;;5.83;5.23;;;7.70;99.90;;;;;;5014654;28;20214;-66
2021/05/01 02:10:43;;;;;;;9.70;5.30;;;7.50;99.90;;;;;;5014562;28;20175;-64
2021/05/01 02:13:09;;;;;;;8.60;4.50;;;7.50;99.90;;;;;;5030547;28;20213;-65
2021/05/01 02:15:35;;;;;;;14.70;4.13;;;7.40;99.90;;;;;;5034065;28;20174;-66
2021/05/01 02:18:02;;;;;;;8.75;4.85;;;7.40;99.90;;;;;;5025243;28;20662;-65
2021/05/01 02:20:31;;;;;;;6.88;5.55;;;7.40;99.90;;;;;;5033798;28;20186;-65
2021/05/01 02:22:57;;;;;;;2.95;2.60;;;7.30;99.90;;;;;;5048472;28;20177;-66
2021/05/01 02:25:23;;;;;;;8.18;4.60;;;7.30;99.90;;;;;;5033167;28;20184;-66
2021/05/01 02:27:50;;;;;;;6.72;4.32;;;7.30;99.90;;;;;;5027706;28;20179;-65
2021/05/01 02:30:20;;;;;;;10.88;4.55;;;7.30;99.90;;;;;;5033869;28;20179;-65
2021/05/01 02:32:47;;;;;;;7.45;3.95;;;7.30;99.90;;;;;;5021014;28;20233;-65
2021/05/01 02:35:16;;;;;;;4.13;3.83;;;7.30;99.90;;;;;;5014154;28;20217;-65
2021/05/01 02:37:43;;;;;;;7.60;2.95;;;7.20;99.90;;;;;;5025589;28;20651;-66
2021/05/01 02:40:10;;;;;;;4.70;4.45;;;7.20;99.90;;;;;;5034124;28;20308;-64
2021/05/01 02:42:37;;;;;;;6.80;6.20;;;7.10;99.90;;;;;;5030606;28;20174;-65
2021/05/01 02:45:05;;;;;;;15.85;5.05;;;7.10;99.90;;;;;;5033546;28;20178;-65
2021/05/01 02:47:31;;;;;;;4.10;2.72;;;7.10;99.90;;;;;;5022930;28;20180;-64
2021/05/01 02:49:56;;;;;;;5.93;5.33;;;7.10;99.90;;;;;;5031652;28;20250;-66
2021/05/01 02:52:22;;;;;;;8.53;3.57;;;7.10;99.90;;;;;;5024563;28;20186;-66
2021/05/01 02:54:48;;;;;;;8.43;3.10;;;7.10;99.90;;;;;;5028810;28;20529;-65
2021/05/01 02:57:13;;;;;;;5.23;3.00;;;7.10;99.90;;;;;;5017864;28;20645;-65
2021/05/01 02:59:39;;;;;;;5.70;5.20;;;7.10;99.90;;;;;;5013794;28;20222;-64
2021/05/01 03:02:05;;;;;;;4.73;4.27;;;7.10;99.90;;;;;;5026287;28;20177;-66
2021/05/01 03:04:30;;;;;;;4.73;4.33;;;7.10;99.90;;;;;;5033272;28;20201;-65
2021/05/01 03:06:56;;;;;;;24.47;4.87;;;7.10;99.90;;;;;;5032531;28;20185;-64
2021/05/01 03:09:21;;;;;;;7.63;4.83;;;7.00;99.90;;;;;;5033642;28;20206;-64
2021/05/01 03:11:47;;;;;;;4.77;3.30;;;6.90;99.90;;;;;;5032107;28;20182;-65
2021/05/01 03:14:13;;;;;;;5.97;4.13;;;6.90;99.90;;;;;;5033231;28;20605;-65
2021/05/01 03:16:38;;;;;;;4.03;3.60;;;7.00;99.90;;;;;;5023867;28;20184;-66
2021/05/01 03:19:05;;;;;;;8.53;3.63;;;6.90;99.90;;;;;;5013273;28;20254;-66
2021/05/01 03:21:30;;;;;;;7.35;2.75;;;6.90;99.90;;;;;;5020775;28;20166;-65
2021/05/01 03:23:56;;;;;;;4.37;3.33;;;6.80;99.90;;;;;;5033133;28;20694;-64
2021/05/01 03:26:22;;;;;;;4.37;3.90;;;6.80;99.90;;;;;;5026352;28;20176;-66
2021/05/01 03:28:47;;;;;;;2.83;2.63;;;6.70;99.90;;;;;;5013437;28;20205;-66
2021/05/01 03:31:13;;;;;;;3.40;3.10;;;6.70;99.90;;;;;;5014044;28;20186;-65
2021/05/01 03:33:39;;;;;;;4.43;2.47;;;6.60;99.90;;;;;;5017643;28;20459;-66
2021/05/01 03:36:05;;;;;;;10.87;4.77;;;6.60;99.90;;;;;;5030188;28;20210;-65
2021/05/01 03:38:32;;;;;;;3.50;3.03;;;6.50;99.90;;;;;;5015828;28;20194;-64
2021/05/01 03:40:58;;;;;;;4.78;3.88;;;6.50;99.90;;;;;;5018180;28;20174;-66
2021/05/01 03:43:24;;;;;;;5.13;4.00;;;6.40;99.90;;;;;;5037065;28;20208;-66
2021/05/01 03:45:50;;;;;;;3.17;2.97;;;6.40;99.90;;;;;;5036265;28;20166;-66
2021/05/01 03:48:15;;;;;;;4.07;3.77;;;6.40;99.90;;;;;;5017299;28;20183;-67
2021/05/01 03:50:41;;;;;;;4.37;3.97;;;;;;;;;;5029005;28;20260;-66
2021/05/01 03:53:07;;;;;;;2.70;2.25;;;6.30;99.90;;;;;;5035988;28;20188;-66
2021/05/01 03:55:33;;;;;;;4.80;3.03;;;6.30;99.90;;;;;;5036571;28;20174;-66
2021/05/01 03:57:59;;;;;;;6.83;4.67;;;6.30;99.90;;;;;;5034594;28;20229;-66
2021/05/01 04:00:24;;;;;;;6.83;3.97;;;6.30;99.90;;;;;;5031046;28;20218;-67
2021/05/01 04:02:50;;;;;;;7.93;3.53;;;6.30;99.90;;;;;;5016910;28;20175;-65
2021/05/01 04:05:22;;;;;;;6.32;4.85;;;6.30;99.90;;;;;;5020556;28;20253;-64
2021/05/01 04:07:48;;;;;;;5.22;4.72;;;6.20;99.90;;;;;;5036070;28;20170;-66
2021/05/01 04:10:15;;;;;;;4.07;3.70;;;6.20;99.90;;;;;;5032551;28;20194;-65
2021/05/01 04:12:40;;;;;;;6.47;3.33;;;6.30;99.90;;;;;;5019570;28;20182;-66
2021/05/01 04:15:08;;;;;;;4.47;4.10;;;6.30;99.90;;;;;;5034336;28;20189;-65
2021/05/01 04:17:34;;;;;;;5.65;4.97;;;6.30;99.90;;;;;;5016295;28;20254;-64
2021/05/01 04:19:59;;;;;;;4.07;3.83;;;6.40;99.90;;;;;;5018287;28;20198;-66
2021/05/01 04:22:25;;;;;;;5.43;4.80;;;6.40;99.90;;;;;;5036406;28;20163;-64
2021/05/01 04:24:51;;;;;;;3.73;3.30;;;6.40;99.90;;;;;;5036186;28;20178;-65
2021/05/01 04:27:18;;;;;;;3.50;3.30;;;6.40;99.90;;;;;;5017573;28;20425;-65
2021/05/01 04:29:43;;;;;;;2.55;2.10;;;6.50;99.90;;;;;;5036270;28;20194;-65
2021/05/01 04:32:09;;;;;;;4.63;4.33;;;6.40;99.90;;;;;;5035193;28;20675;-65
2021/05/01 04:34:35;;;;;;;5.70;4.27;;;6.50;99.90;;;;;;5036144;28;20169;-65
2021/05/01 04:37:01;;;;;;;6.30;3.83;;;6.50;99.90;;;;;;5019053;28;20258;-65
2021/05/01 04:39:26;;;;;;;16.37;3.80;;;6.60;99.90;;;;;;5016322;28;20690;-66
2021/05/01 04:41:53;;;;;;;3.60;3.30;;;6.70;99.90;;;;;;5031260;28;20182;-66
2021/05/01 04:44:20;;;;;;;3.55;3.35;;;6.70;99.90;;;;;;5016403;28;20171;-65
2021/05/01 04:46:49;;;;;;;7.75;5.72;;;6.70;99.90;;;;;;5030578;28;20174;-65
2021/05/01 04:49:15;;;;;;;5.80;4.15;;;6.70;99.90;;;;;;5034796;28;20225;-66
2021/05/01 04:51:41;;;;;;;3.93;3.60;;;6.80;99.90;;;;;;5034799;28;20205;-66
2021/05/01 04:54:07;;;;;;;6.50;2.47;;;6.90;99.90;;;;;;5036096;28;20694;-65
2021/05/01 04:56:33;;;;;;;9.98;5.50;;;6.90;99.90;;;;;;5022189;28;20178;-65
2021/05/01 04:58:59;;;;;;;4.00;3.70;;;6.90;99.90;;;;;;5015791;28;20604;-66
2021/05/01 05:01:24;;;;;;;3.93;3.57;;;7.00;99.90;;;;;;5027469;28;20163;-65
2021/05/01 05:03:51;;;;;;;6.13;3.57;;;7.00;99.90;;;;;;5035849;28;20173;-66
2021/05/01 05:06:17;;;;;;;4.93;3.70;;;7.00;99.90;;;;;;5023953;28;20218;-66
2021/05/01 05:08:43;;;;;;;9.77;5.47;;;7.00;99.90;;;;;;5015870;28;20696;-65
2021/05/01 05:11:08;;;;;;;4.23;3.83;;;7.10;99.90;;;;;;5025219;28;20182;-65
2021/05/01 05:13:34;;;;;;;5.87;4.60;;;7.20;99.90;;;;;;5035505;28;20243;-65
2021/05/01 05:16:00;;;;;;;9.27;5.17;;;7.20;99.90;;;;;;5026889;28;20174;-66
2021/05/01 05:18:25;;;;;;;7.57;4.10;;;7.30;99.90;;;;;;5015579;28;20199;-65
2021/05/01 05:20:51;;;;;;;6.97;5.40;;;7.50;99.90;;;;;;5023493;28;20197;-66
2021/05/01 05:23:17;;;;;;;5.47;5.00;;;7.50;99.90;;;;;;5015619;28;20509;-66
2021/05/01 05:25:43;;;;;;;5.80;4.63;;;7.60;99.90;;;;;;5020350;28;20416;-66
2021/05/01 05:28:08;;;;;;;6.60;4.20;;;7.60;99.90;;;;;;5047011;28;20195;-65
2021/05/01 05:30:34;;;;;;;6.20;4.77;;;7.60;99.90;;;;;;5031157;28;20510;-66
2021/05/01 05:33:00;;;;;;;7.37;4.00;;;7.60;99.90;;;;;;5015287;28;20183;-66
2021/05/01 05:35:27;;;;;;;6.63;4.45;;;7.70;99.90;;;;;;5018098;28;20168;-65
2021/05/01 05:37:52;;;;;;;5.53;3.83;;;7.80;99.90;;;;;;5034638;28;20577;-66
2021/05/01 05:40:18;;;;;;;3.47;3.17;;;8.00;99.90;;;;;;5032004;28;20202;-65
2021/05/01 05:42:47;;;;;;;3.00;2.75;;;8.00;99.90;;;;;;5015228;28;20185;-66
2021/05/01 05:45:21;;;;;;;11.07;5.07;;;8.10;99.90;;;;;;5016526;28;20193;-66
2021/05/01 05:47:47;;;;;;;10.90;5.05;;;8.30;99.90;;;;;;5018070;28;20250;-64
2021/05/01 05:50:13;;;;;;;8.10;4.90;;;8.50;99.90;;;;;;5034025;28;20925;-66
2021/05/01 05:52:39;;;;;;;15.17;4.77;;;8.70;99.90;;;;;;5034860;28;20179;-65
2021/05/01 05:55:05;;;;;;;12.00;5.03;;;8.90;99.90;;;;;;5033548;28;20528;-66
2021/05/01 05:57:31;;;;;;;7.00;4.43;;;8.90;99.90;;;;;;5030028;28;20182;-65
2021/05/01 05:59:56;;;;;;;12.00;5.97;;;9.10;99.90;;;;;;5024711;28;20207;-65
2021/05/01 06:02:24;;;;;;;11.60;7.73;;;9.20;99.90;;;;;;5014933;28;20521;-64
2021/05/01 06:05:03;;;;;;;6.43;4.97;;;9.30;99.90;;;;;;5021934;28;20201;-65
2021/05/01 06:07:35;;;;;;;15.15;5.72;;;9.30;99.90;;;;;;5034002;28;20168;-64
2021/05/01 06:10:05;;;;;;;10.07;4.35;;;9.40;99.90;;;;;;5024770;28;20246;-66
2021/05/01 06:12:32;;;;;;;11.02;4.90;;;9.60;99.90;;;;;;5014701;28;20173;-65
2021/05/01 06:15:02;;;;;;;8.30;4.32;;;9.70;99.90;;;;;;5022554;28;20670;-64
2021/05/01 06:17:28;;;;;;;9.82;5.43;;;9.70;99.90;;;;;;5033804;28;20186;-64
2021/05/01 06:19:57;;;;;;;13.68;7.82;;;9.60;99.90;;;;;;5032621;28;20546;-64
2021/05/01 06:22:25;;;;;;;12.63;5.38;;;9.70;99.90;;;;;;5034111;28;20201;-66
2021/05/01 06:24:53;;;;;;;12.88;6.88;;;9.70;99.90;;;;;;5026404;28;20179;-65
2021/05/01 06:27:20;;;;;;;12.90;6.90;;;9.70;99.90;;;;;;5015200;28;20270;-64
2021/05/01 06:29:46;;;;;;;13.27;6.55;;;9.60;99.90;;;;;;5033126;28;20269;-65
2021/05/01 06:32:13;;;;;;;11.90;5.80;;;9.70;99.90;;;;;;5032295;28;20202;-65
2021/05/01 06:34:39;;;;;;;13.88;6.13;;;9.80;99.90;;;;;;5029089;28;20508;-67
2021/05/01 06:37:06;;;;;;;14.10;7.00;;;10.00;99.90;;;;;;5013823;28;20273;-65
2021/05/01 06:39:35;;;;;;;13.55;7.20;;;10.10;99.90;;;;;;5014036;28;20460;-66
2021/05/01 06:42:04;;;;;;;9.75;4.25;;;10.20;99.90;;;;;;5015076;28;20163;-70
2021/05/01 06:44:36;;;;;;;14.77;7.15;;;10.30;99.90;;;;;;5030504;28;20221;-66
2021/05/01 06:47:01;;;;;;;12.98;5.43;;;10.30;99.90;;;;;;5014638;28;20190;-68
2021/05/01 06:49:50;;;;;;;17.40;6.73;;;10.10;99.90;;;;;;5016674;28;20197;-65
2021/05/01 06:52:16;;;;;;;12.77;6.43;;;10.20;99.90;;;;;;5033801;28;20498;-69
2021/05/01 06:54:44;;;;;;;11.80;4.88;;;10.20;99.90;;;;;;5028486;28;20175;-70
2021/05/01 06:57:12;;;;;;;9.95;5.32;;;10.00;99.90;;;;;;5013473;28;20245;-68
2021/05/01 06:59:38;;;;;;;16.10;6.90;;;10.10;99.90;;;;;;5017527;28;20194;-68
2021/05/01 07:02:04;;;;;;;14.18;6.88;;;10.10;99.90;;;;;;5033075;28;20180;-70
2021/05/01 07:04:30;;;;;;;12.00;6.43;;;10.00;99.90;;;;;;5045903;28;20584;-69
2021/05/01 07:06:56;;;;;;;10.60;5.03;;;10.10;99.90;;;;;;5026983;28;20170;-68
2021/05/01 07:09:22;;;;;;;12.50;6.20;;;9.80;99.90;;;;;;5032693;28;20213;-68
2021/05/01 07:11:48;;;;;;;14.90;6.03;;;9.90;99.90;;;;;;5032940;28;20174;-68
2021/05/01 07:14:14;;;;;;;10.32;5.90;;;10.00;99.90;;;;;;5032867;28;20194;-68
2021/05/01 07:16:41;;;;;;;17.70;7.25;;;10.10;99.90;;;;;;5011799;28;20174;-68
2021/05/01 07:19:08;;;;;;;15.27;6.90;;;10.20;99.90;;;;;;5012917;28;20530;-74
2021/05/01 07:21:35;;;;;;;13.80;5.43;;;10.10;99.90;;;;;;5031539;28;20202;-68
2021/05/01 07:24:01;;;;;;;14.38;7.32;;;10.00;99.90;;;;;;5033383;28;20172;-67
2021/05/01 07:26:27;;;;;;;13.25;5.97;;;10.00;99.90;;;;;;5030473;28;20714;-69
2021/05/01 07:28:54;;;;;;;18.93;5.50;;;9.90;99.90;;;;;;5031284;28;20209;-68
2021/05/01 07:31:24;;;;;;;10.77;4.63;;;9.80;99.90;;;;;;5016046;28;20426;-65
2021/05/01 07:33:55;;;;;;;11.77;5.75;;;9.70;99.90;;;;;;5013502;28;20186;-68
2021/05/01 07:36:29;;;;;;;24.23;7.80;;;9.70;99.90;;;;;;5028935;28;20262;-66
2021/05/01 07:38:58;;;;;;;13.38;5.75;;;9.70;99.90;;;;;;5032720;28;20190;-65
2021/05/01 07:41:25;;;;;;;12.30;4.03;;;9.70;99.90;;;;;;5030135;28;20165;-67
2021/05/01 07:43:53;;;;;;;12.95;5.63;;;9.80;99.90;;;;;;5032895;28;20197;-68
2021/05/01 07:46:23;;;;;;;12.18;4.75;;;9.80;99.90;;;;;;5021010;28;20182;-66
2021/05/01 07:48:50;;;;;;;10.95;4.88;;;9.90;99.90;;;;;;5013226;28;20248;-66
2021/05/01 07:51:17;;;;;;;13.07;3.85;;;9.90;99.90;;;;;;5025907;28;20204;-66
2021/05/01 07:53:44;;;;;;;10.52;5.30;;;9.90;99.90;;;;;;5027883;28;20187;-66
2021/05/01 07:56:10;;;;;;;11.27;4.05;;;10.00;99.90;;;;;;5037980;28;20178;-66
2021/05/01 07:58:35;;;;;;;9.53;5.07;;;10.00;99.90;;;;;;5033036;28;20206;-66
2021/05/01 08:01:01;;;;;;;9.90;4.33;;;10.00;99.90;;;;;;5031199;28;20435;-69
2021/05/01 08:03:26;;;;;;;12.33;4.77;;;10.10;99.90;;;;;;5032669;28;20201;-68
2021/05/01 08:05:52;;;;;;;13.67;5.17;;;10.10;99.90;;;;;;5031030;28;20648;-68
2021/05/01 08:08:18;;;;;;;10.00;4.33;;;10.30;99.90;;;;;;5015623;28;20654;-69
2021/05/01 08:10:44;;;;;;;14.40;6.33;;;10.50;99.90;;;;;;5012984;28;20179;-69
2021/05/01 08:13:10;;;;;;;11.85;5.53;;;10.50;99.90;;;;;;5012618;28;20189;-67
2021/05/01 08:15:37;;;;;;;12.73;5.65;;;10.50;99.90;;;;;;5013928;28;20159;-69
2021/05/01 08:18:04;;;;;;;10.68;4.40;;;10.60;99.90;;;;;;5014827;28;20189;-68
2021/05/01 08:20:30;;;;;;;14.48;5.18;;;10.40;99.90;;;;;;5012886;28;20202;-69
2021/05/01 08:22:56;;;;;;;12.80;6.70;;;10.30;99.90;;;;;;5013134;28;20167;-69
2021/05/01 08:25:22;;;;;;;11.70;4.53;;;10.30;99.90;;;;;;5036146;28;20170;-68
2021/05/01 08:27:48;;;;;;;11.10;6.53;;;10.30;99.90;;;;;;5035542;28;20174;-67
2021/05/01 08:30:16;;;;;;;13.00;6.30;;;10.20;99.90;;;;;;5026240;28;20182;-68
2021/05/01 08:32:45;;;;;;;13.48;4.57;;;10.20;99.90;;;;;;5036376;28;20170;-67
2021/05/01 08:35:12;;;;;;;11.75;4.97;;;10.10;99.90;;;;;;5035644;28;20181;-68
2021/05/01 08:37:39;;;;;;;14.00;6.22;;;10.00;99.90;;;;;;5035573;28;20632;-66
2021/05/01 08:40:06;;;;;;;11.93;5.32;;;9.90;99.90;;;;;;5019016;28;20203;-67
2021/05/01 08:42:32;;;;;;;12.80;4.47;;;9.80;99.90;;;;;;5030511;28;20170;-68
2021/05/01 08:45:04;;;;;;;10.80;5.00;;;9.80;99.90;;;;;;5033903;28;20253;-67
2021/05/01 08:47:34;;;;;;;13.70;8.48;;;9.80;99.90;;;;;;5015816;28;20633;-67
2021/05/01 08:50:05;;;;;;;11.77;4.35;;;9.80;99.90;;;;;;5021300;28;20190;-68
2021/05/01 08:52:31;;;;;;;13.27;4.25;;;9.80;99.90;;;;;;5035424;28;20169;-69
2021/05/01 08:54:59;;;;;;;13.87;4.30;;;9.80;99.90;;;;;;5034730;28;20648;-69
2021/05/01 08:57:30;;;;;;;13.18;5.32;;;9.90;99.90;;;;;;5035305;28;20397;-67
2021/05/01 08:59:56;;;;;;;10.88;5.70;;;10.10;99.90;;;;;;5034884;28;20271;-69
2021/05/01 09:02:25;;;;;;;15.90;5.95;;;10.20;99.90;;;;;;5035811;28;20162;-69
2021/05/01 09:04:52;;;;;;;11.15;4.88;;;10.40;99.90;;;;;;5022560;28;20286;-69
2021/05/01 09:07:19;;;;;;;11.73;4.45;;;10.60;99.90;;;;;;5017063;28;20151;-68
2021/05/01 09:09:56;;;;;;;13.65;5.95;;;10.60;99.90;;;;;;5034826;28;20206;-68
2021/05/01 09:12:54;;;;;;;12.95;5.32;;;10.90;99.90;;;;;;5035637;28;20675;-67
2021/05/01 09:15:25;;;;;;;13.75;7.07;;;11.10;99.90;;;;;;5017785;28;20920;-70
2021/05/01 09:18:02;;;;;;;15.38;6.68;;;11.00;99.90;;;;;;5015105;28;20182;-69
2021/05/01 09:20:31;;;;;;;14.45;6.55;;;11.20;99.90;;;;;;5017444;28;20264;-68
2021/05/01 09:23:07;;;;;;;13.18;6.72;;;11.40;99.90;;;;;;5015483;28;20619;-69
2021/05/01 09:25:57;;;;;;;14.00;6.90;;;11.70;99.90;;;;;;5032432;28;20190;-68
2021/05/01 09:28:24;;;;;;;15.90;8.40;;;11.90;99.90;;;;;;5034683;28;20612;-70
2021/05/01 09:31:05;;;;;;;14.00;6.43;;;11.90;99.90;;;;;;5015436;28;20479;-71
2021/05/01 09:33:43;;;;;;;15.90;5.67;;;12.00;99.90;;;;;;5020517;28;20476;-69
2021/05/01 09:36:15;;;;;;;15.90;7.30;;;12.10;99.90;;;;;;5013551;28;20423;-69
2021/05/01 09:38:45;;;;;;;14.10;7.67;;;12.20;99.90;;;;;;5016145;28;20451;-69
2021/05/01 09:41:26;;;;;;;14.93;7.37;;;12.20;99.90;;;;;;5029285;28;20423;-69
2021/05/01 09:44:02;;;;;;;19.70;7.50;;;12.30;99.90;;;;;;5017401;28;20425;-70
2021/05/01 09:46:37;;;;;;;16.33;7.37;;;12.30;99.90;;;;;;5029070;28;20843;-71
2021/05/01 09:49:28;;;;;;;11.67;5.20;;;12.30;99.90;;;;;;5033226;28;20446;-68
2021/05/01 09:52:02;;;;;;;17.57;9.37;;;12.40;99.90;;;;;;5030097;28;20427;-68
2021/05/01 09:54:34;;;;;;;16.47;6.87;;;12.50;99.90;;;;;;5015260;28;20384;-68
2021/05/01 09:57:08;;;;;;;16.77;7.93;;;12.50;99.90;;;;;;5023427;28;20422;-69
2021/05/01 09:59:49;;;;;;;17.50;8.33;;;12.50;99.90;;;;;;5033599;28;20880;-68
2021/05/01 10:02:30;;;;;;;17.00;9.03;;;12.60;99.90;;;;;;5014816;28;20462;-70
2021/05/01 10:05:12;;;;;;;16.77;8.13;;;12.80;99.90;;;;;;5017449;28;20428;-67
2021/05/01 10:07:49;;;;;;;15.50;7.33;;;13.20;99.90;;;;;;5033490;28;20424;-70
2021/05/01 10:10:15;;;;;;;19.27;10.03;;;13.40;99.90;;;;;;5033616;28;20428;-70
2021/05/01 10:12:42;;;;;;;17.60;8.73;;;13.50;99.90;;;;;;5034442;28;20404;-68
2021/05/01 10:15:17;;;;;;;11.90;6.33;;;13.60;99.90;;;;;;5033236;28;20223;-70
2021/05/01 10:17:47;;;;;;;16.90;9.13;;;13.70;99.90;;;;;;5033622;28;20411;-72
2021/05/01 10:20:15;;;;;;;14.57;8.77;;;13.80;99.90;;;;;;5029215;28;20572;-70
2021/05/01 10:22:46;;;;;;;12.10;6.43;;;13.90;99.90;;;;;;5014456;28;20498;-70
2021/05/01 10:25:17;;;;;;;17.43;7.83;;;14.10;99.90;;;;;;5017773;28;20482;-71
2021/05/01 10:28:01;;;;;;;17.67;9.33;;;13.90;99.90;;;;;;5033640;28;20491;-70
2021/05/01 10:30:33;;;;;;;12.93;5.67;;;13.60;99.90;;;;;;5046554;28;20428;-70
2021/05/01 10:33:17;;;;;;;13.47;7.43;;;13.50;99.90;;;;;;5034069;28;20396;-69
2021/05/01 10:36:07;;;;;;;14.27;7.43;;;13.40;99.90;;;;;;5025629;28;20444;-69
2021/05/01 10:38:33;;;;;;;15.20;8.23;;;13.00;99.90;;;;;;5014030;28;20435;-72
2021/05/01 10:41:02;;;;;;;19.50;8.80;;;12.90;99.90;;;;;;5023311;28;20418;-71
2021/05/01 10:43:39;;;;;;;14.20;6.90;;;12.80;99.90;;;;;;5034020;28;20389;-73
2021/05/01 10:46:10;;;;;;;13.33;6.60;;;12.90;99.90;;;;;;5030438;28;20415;-71
2021/05/01 10:48:52;;;;;;;15.87;7.33;;;12.80;99.90;;;;;;5033648;28;20436;-68
2021/05/01 10:51:24;;;;;;;13.30;6.27;;;12.80;99.90;;;;;;5021733;28;20948;-71
2021/05/01 10:54:21;;;;;;;15.50;6.83;;;12.90;99.90;;;;;;5026016;28;20802;-71
2021/05/01 10:56:53;;;;;;;13.00;7.20;;;12.80;99.90;;;;;;5032655;28;20422;-71
2021/05/01 10:59:23;;;;;;;14.77;8.53;;;12.90;99.90;;;;;;5033626;28;20534;-72
2021/05/01 11:01:51;;;;;;;13.70;7.50;;;12.90;99.90;;;;;;5016727;28;20427;-70
2021/05/01 11:04:26;;;;;;;15.10;7.57;;;12.80;99.90;;;;;;5013818;28;20915;-69
2021/05/01 11:07:11;;;;;;;14.50;7.77;;;12.70;99.90;;;;;;5029467;28;20422;-72
2021/05/01 11:09:41;;;;;;;11.60;5.83;;;12.70;99.90;;;;;;5023661;28;20440;-71
2021/05/01 11:12:12;;;;;;;17.20;8.30;;;12.70;99.90;;;;;;5012526;28;20404;-69
2021/05/01 11:14:51;;;;;;;15.40;7.57;;;12.70;99.90;;;;;;5022482;28;20414;-71
2021/05/01 11:17:32;;;;;;;15.90;8.73;;;12.60;99.90;;;;;;5032496;28;20749;-69
2021/05/01 11:20:00;;;;;;;13.27;6.30;;;12.50;99.90;;;;;;5032017;28;20487;-69
2021/05/01 11:22:27;;;;;;;17.37;8.27;;;12.50;99.90;;;;;;5032752;28;20409;-71
2021/05/01 11:24:57;;;;;;;17.10;8.25;;;12.30;99.90;;;;;;5016003;28;20967;-69
2021/05/01 11:27:24;;;;;;;13.20;6.50;;;12.40;99.90;;;;;;5032931;28;20180;-72
2021/05/01 11:29:51;;;;;;;14.07;6.23;;;12.60;99.90;;;;;;5013586;28;20441;-69
2021/05/01 11:32:18;;;;;;;13.43;7.83;;;12.80;99.90;;;;;;5013539;28;20495;-71
2021/05/01 11:34:51;;;;;;;17.13;8.60;;;13.10;99.90;;;;;;5030602;28;20879;-69
2021/05/01 11:37:21;;;;;;;15.27;6.77;;;13.20;99.90;;;;;;5032632;28;20408;-69
2021/05/01 11:39:48;;;;;;;18.50;8.20;;;13.20;99.90;;;;;;5014610;28;20465;-70
2021/05/01 11:42:21;;;;;;;16.10;7.83;;;13.00;99.90;;;;;;5021556;28;20437;-69
2021/05/01 11:44:49;;;;;;;12.50;6.90;;;12.90;99.90;;;;;;5015425;28;20419;-69
2021/05/01 11:47:19;;;;;;;18.03;9.70;;;12.90;99.90;;;;;;5028502;28;20484;-70
2021/05/01 11:49:46;;;;;;;15.07;6.20;;;12.90;99.90;;;;;;5032426;28;20481;-71
2021/05/01 11:52:20;;;;;;;15.07;7.90;;;12.80;99.90;;;;;;5017264;28;20438;-70
2021/05/01 11:55:27;;;;;;;19.57;10.20;;;12.90;99.90;;;;;;5015766;28;20415;-70
2021/05/01 11:57:58;;;;;;;17.40;9.40;;;13.00;99.90;;;;;;5024558;28;20450;-71
2021/05/01 12:00:41;;;;;;;18.57;10.07;;;13.20;99.90;;;;;;5028992;28;20791;-69
2021/05/01 12:03:20;;;;;;;15.10;7.87;;;13.40;99.90;;;;;;5036735;28;20894;-70
2021/05/01 12:05:53;;;;;;;19.20;8.13;;;13.60;99.90;;;;;;5019914;28;20420;-70
2021/05/01 12:08:22;;;;;;;12.77;8.00;;;13.80;99.90;;;;;;5016529;28;20436;-71
2021/05/01 12:10:54;;;;;;;18.00;9.47;;;13.80;99.90;;;;;;5029216;28;20518;-68
2021/05/01 12:13:29;;;;;;;18.43;7.23;;;13.70;99.90;;;;;;5036754;28;20419;-70
2021/05/01 12:15:58;;;;;;;22.23;11.27;;;14.00;99.90;;;;;;5033771;28;20437;-69
2021/05/01 12:18:47;;;;;;;18.10;10.15;;;14.00;99.90;;;;;;5029787;28;20459;-68
2021/05/01 12:21:42;;;;;;;16.60;7.70;;;14.10;99.90;;;;;;5034051;28;20506;-67
2021/05/01 12:24:27;;;;;;;13.07;7.13;;;14.20;99.90;;;;;;5036170;28;20915;-69
2021/05/01 12:26:54;;;;;;;16.50;8.97;;;14.40;99.90;;;;;;5016117;28;20783;-69
2021/05/01 12:29:23;;;;;;;15.30;9.70;;;14.50;99.90;;;;;;5016801;28;20429;-68
2021/05/01 12:32:05;;;;;;;19.70;9.80;;;14.40;99.90;;;;;;5016631;28;20789;-67
2021/05/01 12:34:46;;;;;;;21.77;10.70;;;14.30;99.90;;;;;;5030477;28;20452;-69
2021/05/01 12:37:12;;;;;;;14.53;6.53;;;14.20;99.90;;;;;;5016046;28;20466;-69
2021/05/01 12:39:39;;;;;;;14.50;7.97;;;14.10;99.90;;;;;;5019066;28;20452;-69
2021/05/01 12:42:32;;;;;;;12.83;7.13;;;14.10;99.90;;;;;;5035856;28;20900;-70
2021/05/01 12:44:59;;;;;;;14.30;8.60;;;14.20;99.90;;;;;;5031036;28;20417;-68
2021/05/01 12:47:37;;;;;;;15.57;8.30;;;14.30;99.90;;;;;;5015862;28;20421;-70
2021/05/01 12:50:11;;;;;;;12.93;8.13;;;14.20;99.90;;;;;;5020958;28;20440;-68
2021/05/01 12:52:37;;;;;;;13.60;8.63;;;14.20;99.90;;;;;;5035717;28;20408;-70
2021/05/01 12:55:03;;;;;;;14.97;8.70;;;14.30;99.90;;;;;;5035573;28;20423;-68
2021/05/01 12:57:34;;;;;;;16.43;7.93;;;14.40;99.90;;;;;;5035567;28;20208;-68